sensor_id;sensor_type;location;lat;lon;timestamp;pressure;altitude;pressure_sealevel;temperature;humidity
50590;BME280;36547;50.514;30.840;2023-05-03T00:00:38;100775.25;;;11.07;49.72
50590;BME280;36547;50.514;30.840;2023-05-03T00:01:41;100780.57;;;11.07;49.80
50590;BME280;36547;50.514;30.840;2023-05-03T00:02:43;100771.79;;;11.05;49.67
50590;BME280;36547;50.514;30.840;2023-05-03T00:03:46;100779.77;;;11.05;49.85
50590;BME280;36547;50.514;30.840;2023-05-03T00:04:53;100779.83;;;11.04;50.15
50590;BME280;36547;50.514;30.840;2023-05-03T00:05:56;100778.04;;;11.04;49.80
50590;BME280;36547;50.514;30.840;2023-05-03T00:06:58;100782.55;;;11.02;50.03
50590;BME280;36547;50.514;30.840;2023-05-03T00:08:01;100780.83;;;11.01;50.12
50590;BME280;36547;50.514;30.840;2023-05-03T00:09:03;100774.64;;;11.01;50.06
50590;BME280;36547;50.514;30.840;2023-05-03T00:10:07;100782.68;;;10.99;50.14
50590;BME280;36547;50.514;30.840;2023-05-03T00:11:11;100776.72;;;10.94;50.24
50590;BME280;36547;50.514;30.840;2023-05-03T00:12:13;100776.72;;;10.94;50.41
50590;BME280;36547;50.514;30.840;2023-05-03T00:13:15;100779.22;;;10.97;50.31
50590;BME280;36547;50.514;30.840;2023-05-03T00:14:18;100784.70;;;10.94;50.40
50590;BME280;36547;50.514;30.840;2023-05-03T00:15:20;100786.55;;;10.92;50.55
50590;BME280;36547;50.514;30.840;2023-05-03T00:16:22;100777.77;;;10.90;50.50
50590;BME280;36547;50.514;30.840;2023-05-03T00:17:24;100784.95;;;10.88;50.62
50590;BME280;36547;50.514;30.840;2023-05-03T00:18:27;100777.03;;;10.86;50.65
50590;BME280;36547;50.514;30.840;2023-05-03T00:19:29;100781.48;;;10.86;50.73
50590;BME280;36547;50.514;30.840;2023-05-03T00:20:33;100777.09;;;10.85;50.96
50590;BME280;36547;50.514;30.840;2023-05-03T00:21:36;100784.95;;;10.88;50.86
50590;BME280;36547;50.514;30.840;2023-05-03T00:22:39;100773.50;;;10.86;50.97
50590;BME280;36547;50.514;30.840;2023-05-03T00:23:41;100780.68;;;10.84;51.07
50590;BME280;36547;50.514;30.840;2023-05-03T00:24:43;100779.81;;;10.83;51.04
50590;BME280;36547;50.514;30.840;2023-05-03T00:25:46;100781.88;;;10.77;51.33
50590;BME280;36547;50.514;30.840;2023-05-03T00:26:48;100769.52;;;10.76;51.39
50590;BME280;36547;50.514;30.840;2023-05-03T00:27:50;100773.91;;;10.77;51.50
50590;BME280;36547;50.514;30.840;2023-05-03T00:28:53;100781.88;;;10.77;51.50
50590;BME280;36547;50.514;30.840;2023-05-03T00:29:55;100778.55;;;10.72;51.66
50590;BME280;36547;50.514;30.840;2023-05-03T00:31:09;100778.83;;;10.66;51.84
50590;BME280;36547;50.514;30.840;2023-05-03T00:32:12;100780.61;;;10.65;51.92
50590;BME280;36547;50.514;30.840;2023-05-03T00:33:14;100775.30;;;10.65;52.05
50590;BME280;36547;50.514;30.840;2023-05-03T00:34:17;100778.88;;;10.64;52.12
50590;BME280;36547;50.514;30.840;2023-05-03T00:35:19;100767.39;;;10.63;52.13
50590;BME280;36547;50.514;30.840;2023-05-03T00:36:22;100773.69;;;10.61;52.27
50590;BME280;36547;50.514;30.840;2023-05-03T00:37:25;100773.63;;;10.62;52.33
50590;BME280;36547;50.514;30.840;2023-05-03T00:38:28;100767.51;;;10.60;52.37
50590;BME280;36547;50.514;30.840;2023-05-03T00:39:30;100772.95;;;10.57;52.41
50590;BME280;36547;50.514;30.840;2023-05-03T00:40:33;100769.55;;;10.54;52.57
50590;BME280;36547;50.514;30.840;2023-05-03T00:41:35;100771.27;;;10.55;52.54
50590;BME280;36547;50.514;30.840;2023-05-03T00:42:38;100768.67;;;10.53;52.64
50590;BME280;36547;50.514;30.840;2023-05-03T00:43:40;100771.33;;;10.53;52.53
50590;BME280;36547;50.514;30.840;2023-05-03T00:44:42;100770.34;;;10.56;52.51
50590;BME280;36547;50.514;30.840;2023-05-03T00:45:46;100766.77;;;10.57;52.44
50590;BME280;36547;50.514;30.840;2023-05-03T00:46:49;100765.78;;;10.59;52.46
50590;BME280;36547;50.514;30.840;2023-05-03T00:47:52;100763.12;;;10.59;52.77
50590;BME280;36547;50.514;30.840;2023-05-03T00:48:54;100763.12;;;10.59;52.81
50590;BME280;36547;50.514;30.840;2023-05-03T00:49:59;100762.13;;;10.62;52.85
50590;BME280;36547;50.514;30.840;2023-05-03T00:51:02;100765.66;;;10.62;52.84
50590;BME280;36547;50.514;30.840;2023-05-03T00:52:07;100762.01;;;10.65;53.00
50590;BME280;36547;50.514;30.840;2023-05-03T00:53:10;100757.56;;;10.66;52.79
50590;BME280;36547;50.514;30.840;2023-05-03T00:54:13;100762.87;;;10.66;52.37
50590;BME280;36547;50.514;30.840;2023-05-03T00:55:16;100763.80;;;10.65;52.78
50590;BME280;36547;50.514;30.840;2023-05-03T00:56:19;100760.98;;;10.68;52.78
50590;BME280;36547;50.514;30.840;2023-05-03T00:57:22;100768.78;;;10.72;52.33
50590;BME280;36547;50.514;30.840;2023-05-03T00:58:25;100764.33;;;10.73;52.20
50590;BME280;36547;50.514;30.840;2023-05-03T00:59:28;100761.48;;;10.77;52.21
50590;BME280;36547;50.514;30.840;2023-05-03T01:00:31;100761.48;;;10.77;52.07
50590;BME280;36547;50.514;30.840;2023-05-03T01:01:34;100761.42;;;10.79;52.07
50590;BME280;36547;50.514;30.840;2023-05-03T01:02:37;100763.09;;;10.81;52.06
50590;BME280;36547;50.514;30.840;2023-05-03T01:03:39;100756.75;;;10.84;52.11
50590;BME280;36547;50.514;30.840;2023-05-03T01:04:44;100764.73;;;10.84;52.30
50590;BME280;36547;50.514;30.840;2023-05-03T01:06:09;100763.95;;;10.82;52.24
50590;BME280;36547;50.514;30.840;2023-05-03T01:08:39;100766.45;;;10.85;51.96
50590;BME280;36547;50.514;30.840;2023-05-03T01:15:16;100754.03;;;10.85;51.88
50590;BME280;36547;50.514;30.840;2023-05-03T01:16:38;100763.86;;;10.83;52.28
50590;BME280;36547;50.514;30.840;2023-05-03T01:18:02;100755.76;;;10.86;52.05
50590;BME280;36547;50.514;30.840;2023-05-03T01:19:13;100758.35;;;10.88;51.94
50590;BME280;36547;50.514;30.840;2023-05-03T01:20:21;100751.56;;;11.01;51.95
50590;BME280;36547;50.514;30.840;2023-05-03T01:21:24;100754.77;;;10.89;52.11
50590;BME280;36547;50.514;30.840;2023-05-03T01:25:07;100747.59;;;10.91;52.17
50590;BME280;36547;50.514;30.840;2023-05-03T01:26:25;100741.34;;;10.92;52.06
50590;BME280;36547;50.514;30.840;2023-05-03T01:27:29;100749.45;;;10.89;52.22
50590;BME280;36547;50.514;30.840;2023-05-03T01:28:32;100748.58;;;10.88;52.32
50590;BME280;36547;50.514;30.840;2023-05-03T01:29:34;100737.37;;;10.82;52.51
50590;BME280;36547;50.514;30.840;2023-05-03T01:30:37;100739.22;;;10.80;52.60
50590;BME280;36547;50.514;30.840;2023-05-03T01:32:45;100737.43;;;10.80;52.97
50590;BME280;36547;50.514;30.840;2023-05-03T01:35:35;100738.27;;;10.60;53.37
50590;BME280;36547;50.514;30.840;2023-05-03T01:36:41;100742.84;;;10.57;53.51
50590;BME280;36547;50.514;30.840;2023-05-03T01:37:44;100739.45;;;10.53;53.71
50590;BME280;36547;50.514;30.840;2023-05-03T01:38:48;100738.92;;;10.45;53.92
50590;BME280;36547;50.514;30.840;2023-05-03T01:40:02;100738.98;;;10.44;54.01
50590;BME280;36547;50.514;30.840;2023-05-03T01:41:09;100735.73;;;10.37;54.21
50590;BME280;36547;50.514;30.840;2023-05-03T01:42:13;100740.17;;;10.37;54.28
50590;BME280;36547;50.514;30.840;2023-05-03T01:43:17;100741.16;;;10.34;54.31
50590;BME280;36547;50.514;30.840;2023-05-03T01:44:22;100740.41;;;10.31;54.48
50590;BME280;36547;50.514;30.840;2023-05-03T01:45:25;100739.67;;;10.27;54.59
50590;BME280;36547;50.514;30.840;2023-05-03T01:46:29;100742.33;;;10.27;54.64
50590;BME280;36547;50.514;30.840;2023-05-03T01:47:32;100737.16;;;10.24;54.82
50590;BME280;36547;50.514;30.840;2023-05-03T01:48:35;100732.63;;;10.26;54.78
50590;BME280;36547;50.514;30.840;2023-05-03T01:49:37;100732.63;;;10.26;54.74
50590;BME280;36547;50.514;30.840;2023-05-03T01:50:40;100723.08;;;10.22;54.76
50590;BME280;36547;50.514;30.840;2023-05-03T01:51:42;100732.69;;;10.24;54.86
50590;BME280;36547;50.514;30.840;2023-05-03T01:52:46;100733.70;;;10.22;54.94
50590;BME280;36547;50.514;30.840;2023-05-03T01:53:50;100731.05;;;10.22;54.90
50590;BME280;36547;50.514;30.840;2023-05-03T01:54:52;100727.58;;;10.20;55.17
50590;BME280;36547;50.514;30.840;2023-05-03T01:55:54;100725.02;;;10.17;55.11
50590;BME280;36547;50.514;30.840;2023-05-03T01:56:57;100728.53;;;10.17;55.16
50590;BME280;36547;50.514;30.840;2023-05-03T01:58:00;100734.71;;;10.18;55.12
50590;BME280;36547;50.514;30.840;2023-05-03T01:59:03;100720.56;;;10.17;55.03
50590;BME280;36547;50.514;30.840;2023-05-03T02:00:06;100722.36;;;10.17;55.16
50590;BME280;36547;50.514;30.840;2023-05-03T02:01:11;100725.85;;;10.19;55.25
50590;BME280;36547;50.514;30.840;2023-05-03T02:02:13;100724.09;;;10.18;55.18
50590;BME280;36547;50.514;30.840;2023-05-03T02:03:16;100727.52;;;10.21;54.98
50590;BME280;36547;50.514;30.840;2023-05-03T02:04:20;100722.33;;;10.18;55.18
50590;BME280;36547;50.514;30.840;2023-05-03T02:05:22;100731.05;;;10.22;55.00
50590;BME280;36547;50.514;30.840;2023-05-03T02:06:25;100727.47;;;10.23;55.15
50590;BME280;36547;50.514;30.840;2023-05-03T02:07:28;100727.31;;;10.26;55.00
50590;BME280;36547;50.514;30.840;2023-05-03T02:08:31;100728.23;;;10.25;55.10
50590;BME280;36547;50.514;30.840;2023-05-03T02:09:34;100725.58;;;10.25;55.08
50590;BME280;36547;50.514;30.840;2023-05-03T02:10:36;100723.79;;;10.25;54.95
50590;BME280;36547;50.514;30.840;2023-05-03T02:11:39;100727.47;;;10.23;54.99
50590;BME280;36547;50.514;30.840;2023-05-03T02:12:41;100722.16;;;10.23;54.98
50590;BME280;36547;50.514;30.840;2023-05-03T02:13:44;100729.25;;;10.22;54.97
50590;BME280;36547;50.514;30.840;2023-05-03T02:14:48;100734.51;;;10.24;54.99
50590;BME280;36547;50.514;30.840;2023-05-03T02:15:51;100734.51;;;10.24;54.96
50590;BME280;36547;50.514;30.840;2023-05-03T02:16:53;100730.89;;;10.25;55.04
50590;BME280;36547;50.514;30.840;2023-05-03T02:17:55;100730.89;;;10.25;54.91
50590;BME280;36547;50.514;30.840;2023-05-03T02:18:59;100734.36;;;10.27;54.96
50590;BME280;36547;50.514;30.840;2023-05-03T02:20:02;100737.82;;;10.29;54.86
50590;BME280;36547;50.514;30.840;2023-05-03T02:21:04;100739.55;;;10.30;54.85
50590;BME280;36547;50.514;30.840;2023-05-03T02:22:07;100738.69;;;10.30;54.89
50590;BME280;36547;50.514;30.840;2023-05-03T02:23:09;100741.34;;;10.30;54.97
50590;BME280;36547;50.514;30.840;2023-05-03T02:24:11;100737.70;;;10.32;54.84
50590;BME280;36547;50.514;30.840;2023-05-03T02:25:13;100737.70;;;10.32;54.87
50590;BME280;36547;50.514;30.840;2023-05-03T02:26:16;100738.63;;;10.31;54.96
50590;BME280;36547;50.514;30.840;2023-05-03T02:27:18;100731.46;;;10.33;54.90
50590;BME280;36547;50.514;30.840;2023-05-03T02:28:21;100740.30;;;10.34;54.86
50590;BME280;36547;50.514;30.840;2023-05-03T02:29:23;100745.55;;;10.35;54.95
50590;BME280;36547;50.514;30.840;2023-05-03T02:30:26;100738.50;;;10.34;55.23
50590;BME280;36547;50.514;30.840;2023-05-03T02:31:28;100741.91;;;10.38;54.98
50590;BME280;36547;50.514;30.840;2023-05-03T02:32:31;100735.58;;;10.40;54.76
50590;BME280;36547;50.514;30.840;2023-05-03T02:33:33;100741.75;;;10.41;54.82
50590;BME280;36547;50.514;30.840;2023-05-03T02:34:36;100746.14;;;10.42;54.87
50590;BME280;36547;50.514;30.840;2023-05-03T02:35:38;100742.63;;;10.41;54.84
50590;BME280;36547;50.514;30.840;2023-05-03T02:36:40;100738.17;;;10.42;54.67
50590;BME280;36547;50.514;30.840;2023-05-03T02:37:43;100739.03;;;10.42;54.84
50590;BME280;36547;50.514;30.840;2023-05-03T02:38:46;100737.19;;;10.44;54.71
50590;BME280;36547;50.514;30.840;2023-05-03T02:39:48;100738.92;;;10.45;54.77
50590;BME280;36547;50.514;30.840;2023-05-03T02:40:50;100736.20;;;10.47;54.66
50590;BME280;36547;50.514;30.840;2023-05-03T02:41:53;100738.86;;;10.47;54.55
50590;BME280;36547;50.514;30.840;2023-05-03T02:42:55;100740.64;;;10.46;54.63
50590;BME280;36547;50.514;30.840;2023-05-03T02:43:59;100738.92;;;10.45;54.68
50590;BME280;36547;50.514;30.840;2023-05-03T02:45:02;100737.98;;;10.46;54.69
50590;BME280;36547;50.514;30.840;2023-05-03T02:46:05;100742.50;;;10.44;54.82
50590;BME280;36547;50.514;30.840;2023-05-03T02:47:09;100741.45;;;10.48;54.62
50590;BME280;36547;50.514;30.840;2023-05-03T02:48:12;100737.93;;;10.48;54.60
50590;BME280;36547;50.514;30.840;2023-05-03T02:49:15;100742.37;;;10.47;54.61
50590;BME280;36547;50.514;30.840;2023-05-03T02:50:18;100742.37;;;10.47;54.70
50590;BME280;36547;50.514;30.840;2023-05-03T02:51:21;100733.48;;;10.48;54.68
50590;BME280;36547;50.514;30.840;2023-05-03T02:52:24;100743.24;;;10.48;54.73
50590;BME280;36547;50.514;30.840;2023-05-03T02:53:26;100732.55;;;10.49;54.86
50590;BME280;36547;50.514;30.840;2023-05-03T02:54:29;100737.00;;;10.49;54.85
50590;BME280;36547;50.514;30.840;2023-05-03T02:55:33;100739.53;;;10.52;54.60
50590;BME280;36547;50.514;30.840;2023-05-03T02:56:36;100740.41;;;10.52;54.64
50590;BME280;36547;50.514;30.840;2023-05-03T02:57:38;100742.91;;;10.55;54.73
50590;BME280;36547;50.514;30.840;2023-05-03T02:58:42;100736.66;;;10.56;54.75
50590;BME280;36547;50.514;30.840;2023-05-03T02:59:45;100741.98;;;10.56;54.86
50590;BME280;36547;50.514;30.840;2023-05-03T03:00:47;100744.52;;;10.59;54.60
50590;BME280;36547;50.514;30.840;2023-05-03T03:01:49;100746.25;;;10.60;54.65
50590;BME280;36547;50.514;30.840;2023-05-03T03:02:52;100743.59;;;10.60;54.53
50590;BME280;36547;50.514;30.840;2023-05-03T03:03:55;100741.73;;;10.62;54.53
50590;BME280;36547;50.514;30.840;2023-05-03T03:04:57;100740.00;;;10.61;54.73
50590;BME280;36547;50.514;30.840;2023-05-03T03:05:59;100742.60;;;10.63;54.79
50590;BME280;36547;50.514;30.840;2023-05-03T03:07:02;100738.15;;;10.63;54.72
50590;BME280;36547;50.514;30.840;2023-05-03T03:08:05;100739.02;;;10.64;54.62
50590;BME280;36547;50.514;30.840;2023-05-03T03:09:08;100736.30;;;10.66;54.67
50590;BME280;36547;50.514;30.840;2023-05-03T03:10:11;100743.19;;;10.70;54.76
50590;BME280;36547;50.514;30.840;2023-05-03T03:11:13;100745.04;;;10.68;54.77
50590;BME280;36547;50.514;30.840;2023-05-03T03:12:16;100741.45;;;10.69;54.80
50590;BME280;36547;50.514;30.840;2023-05-03T03:13:18;100741.39;;;10.70;54.76
50590;BME280;36547;50.514;30.840;2023-05-03T03:14:21;100737.80;;;10.71;54.67
50590;BME280;36547;50.514;30.840;2023-05-03T03:15:23;100730.70;;;10.72;55.11
50590;BME280;36547;50.514;30.840;2023-05-03T03:16:26;100728.91;;;10.72;54.94
50590;BME280;36547;50.514;30.840;2023-05-03T03:17:28;100737.74;;;10.73;54.88
50590;BME280;36547;50.514;30.840;2023-05-03T03:18:31;100734.16;;;10.74;54.88
50590;BME280;36547;50.514;30.840;2023-05-03T03:19:33;100734.16;;;10.74;54.83
50590;BME280;36547;50.514;30.840;2023-05-03T03:20:36;100734.09;;;10.75;54.98
50590;BME280;36547;50.514;30.840;2023-05-03T03:21:39;100731.38;;;10.77;54.89
50590;BME280;36547;50.514;30.840;2023-05-03T03:22:41;100737.49;;;10.79;54.87
50590;BME280;36547;50.514;30.840;2023-05-03T03:23:43;100733.97;;;10.78;54.88
50590;BME280;36547;50.514;30.840;2023-05-03T03:24:46;100737.49;;;10.79;55.00
50590;BME280;36547;50.514;30.840;2023-05-03T03:25:48;100735.64;;;10.81;54.80
50590;BME280;36547;50.514;30.840;2023-05-03T03:26:51;100740.95;;;10.81;54.96
50590;BME280;36547;50.514;30.840;2023-05-03T03:27:53;100737.37;;;10.82;54.99
50590;BME280;36547;50.514;30.840;2023-05-03T03:28:55;100742.53;;;10.85;55.02
50590;BME280;36547;50.514;30.840;2023-05-03T03:29:58;100737.20;;;10.85;55.04
50590;BME280;36547;50.514;30.840;2023-05-03T03:31:01;100748.70;;;10.85;54.97
50590;BME280;36547;50.514;30.840;2023-05-03T03:32:03;100738.01;;;10.87;55.00
50590;BME280;36547;50.514;30.840;2023-05-03T03:33:06;100738.01;;;10.87;55.03
50590;BME280;36547;50.514;30.840;2023-05-03T03:34:12;100738.01;;;10.87;54.93
50590;BME280;36547;50.514;30.840;2023-05-03T03:35:16;100750.44;;;10.86;55.04
50590;BME280;36547;50.514;30.840;2023-05-03T03:36:19;100744.20;;;10.87;54.99
50590;BME280;36547;50.514;30.840;2023-05-03T03:37:22;100743.20;;;10.90;55.30
50590;BME280;36547;50.514;30.840;2023-05-03T03:38:25;100747.59;;;10.91;55.17
50590;BME280;36547;50.514;30.840;2023-05-03T03:39:29;100747.59;;;10.91;55.24
50590;BME280;36547;50.514;30.840;2023-05-03T03:40:32;100744.00;;;10.92;55.15
50590;BME280;36547;50.514;30.840;2023-05-03T03:41:35;100739.48;;;10.94;55.19
50590;BME280;36547;50.514;30.840;2023-05-03T03:42:38;100746.53;;;10.95;55.23
50590;BME280;36547;50.514;30.840;2023-05-03T03:43:41;100749.91;;;10.98;55.32
50590;BME280;36547;50.514;30.840;2023-05-03T03:44:46;100740.99;;;10.99;55.45
50590;BME280;36547;50.514;30.840;2023-05-03T03:45:48;100743.59;;;11.01;55.18
50590;BME280;36547;50.514;30.840;2023-05-03T03:46:50;100750.64;;;11.02;55.30
50590;BME280;36547;50.514;30.840;2023-05-03T03:47:53;100747.05;;;11.03;55.17
50590;BME280;36547;50.514;30.840;2023-05-03T03:48:56;100739.94;;;11.04;55.20
50590;BME280;36547;50.514;30.840;2023-05-03T03:50:00;100748.78;;;11.04;55.19
50590;BME280;36547;50.514;30.840;2023-05-03T03:51:04;100750.52;;;11.05;55.15
50590;BME280;36547;50.514;30.840;2023-05-03T03:52:08;100746.92;;;11.06;55.49
50590;BME280;36547;50.514;30.840;2023-05-03T03:53:11;100745.06;;;11.08;55.44
50590;BME280;36547;50.514;30.840;2023-05-03T03:54:13;100751.25;;;11.09;55.49
50590;BME280;36547;50.514;30.840;2023-05-03T03:55:17;100752.11;;;11.09;55.40
50590;BME280;36547;50.514;30.840;2023-05-03T03:56:20;100751.25;;;11.09;55.29
50590;BME280;36547;50.514;30.840;2023-05-03T03:57:23;100751.95;;;11.12;55.61
50590;BME280;36547;50.514;30.840;2023-05-03T03:58:27;100751.95;;;11.12;55.52
50590;BME280;36547;50.514;30.840;2023-05-03T03:59:30;100753.68;;;11.13;55.50
50590;BME280;36547;50.514;30.840;2023-05-03T04:00:34;100755.41;;;11.14;55.57
50590;BME280;36547;50.514;30.840;2023-05-03T04:01:38;100747.43;;;11.14;55.64
50590;BME280;36547;50.514;30.840;2023-05-03T04:02:41;100757.14;;;11.15;55.79
50590;BME280;36547;50.514;30.840;2023-05-03T04:03:45;100749.96;;;11.17;55.94
50590;BME280;36547;50.514;30.840;2023-05-03T04:04:48;100755.28;;;11.17;55.67
50590;BME280;36547;50.514;30.840;2023-05-03T04:05:51;100751.69;;;11.18;55.52
50590;BME280;36547;50.514;30.840;2023-05-03T04:06:55;100750.77;;;11.19;55.69
50590;BME280;36547;50.514;30.840;2023-05-03T04:07:59;100753.36;;;11.21;55.73
50590;BME280;36547;50.514;30.840;2023-05-03T04:09:03;100742.65;;;11.22;55.67
50590;BME280;36547;50.514;30.840;2023-05-03T04:10:08;100744.38;;;11.23;55.73
50590;BME280;36547;50.514;30.840;2023-05-03T04:11:12;100753.06;;;11.27;55.89
50590;BME280;36547;50.514;30.840;2023-05-03T04:12:16;100751.20;;;11.29;55.73
50590;BME280;36547;50.514;30.840;2023-05-03T04:13:20;100752.00;;;11.31;55.87
50590;BME280;36547;50.514;30.840;2023-05-03T04:14:24;100753.67;;;11.33;55.68
50590;BME280;36547;50.514;30.840;2023-05-03T04:15:27;100758.06;;;11.34;55.67
50590;BME280;36547;50.514;30.840;2023-05-03T04:16:31;100761.52;;;11.37;55.95
50590;BME280;36547;50.514;30.840;2023-05-03T04:17:35;100766.84;;;11.37;55.55
50590;BME280;36547;50.514;30.840;2023-05-03T04:18:39;100757.86;;;11.39;55.76
50590;BME280;36547;50.514;30.840;2023-05-03T04:19:42;100750.74;;;11.40;55.60
50590;BME280;36547;50.514;30.840;2023-05-03T04:20:46;100752.44;;;11.41;55.55
50590;BME280;36547;50.514;30.840;2023-05-03T04:21:49;100755.97;;;11.41;55.46
50590;BME280;36547;50.514;30.840;2023-05-03T04:22:52;100753.17;;;11.44;55.43
50590;BME280;36547;50.514;30.840;2023-05-03T04:23:57;100758.43;;;11.46;55.43
50590;BME280;36547;50.514;30.840;2023-05-03T04:25:01;100753.04;;;11.47;55.12
50590;BME280;36547;50.514;30.840;2023-05-03T04:26:04;100746.85;;;11.47;55.44
50590;BME280;36547;50.514;30.840;2023-05-03T04:27:08;100746.72;;;11.50;55.12
50590;BME280;36547;50.514;30.840;2023-05-03T04:28:12;100744.85;;;11.52;55.13
50590;BME280;36547;50.514;30.840;2023-05-03T04:29:16;100746.58;;;11.53;54.95
50590;BME280;36547;50.514;30.840;2023-05-03T04:30:26;100749.61;;;11.64;55.09
50590;BME280;36547;50.514;30.840;2023-05-03T04:31:29;100751.73;;;11.56;54.97
50590;BME280;36547;50.514;30.840;2023-05-03T04:32:32;100754.33;;;11.57;54.77
50590;BME280;36547;50.514;30.840;2023-05-03T04:33:34;100756.93;;;11.59;54.61
50590;BME280;36547;50.514;30.840;2023-05-03T04:34:38;100752.47;;;11.59;54.82
50590;BME280;36547;50.514;30.840;2023-05-03T04:35:40;100756.80;;;11.62;54.60
50590;BME280;36547;50.514;30.840;2023-05-03T04:36:44;100759.39;;;11.63;54.58
50590;BME280;36547;50.514;30.840;2023-05-03T04:37:47;100761.98;;;11.65;54.59
50590;BME280;36547;50.514;30.840;2023-05-03T04:38:51;100759.25;;;11.66;54.65
50590;BME280;36547;50.514;30.840;2023-05-03T04:39:54;100764.51;;;11.68;54.35
50590;BME280;36547;50.514;30.840;2023-05-03T04:40:56;100756.52;;;11.68;54.31
50590;BME280;36547;50.514;30.840;2023-05-03T04:41:59;100758.22;;;11.69;54.17
50590;BME280;36547;50.514;30.840;2023-05-03T04:43:02;100761.68;;;11.71;54.40
50590;BME280;36547;50.514;30.840;2023-05-03T04:44:06;100764.27;;;11.73;54.07
50590;BME280;36547;50.514;30.840;2023-05-03T04:45:09;100750.89;;;11.74;54.31
50590;BME280;36547;50.514;30.840;2023-05-03T04:46:12;100757.91;;;11.77;54.17
50590;BME280;36547;50.514;30.840;2023-05-03T04:47:14;100759.58;;;11.79;54.30
50590;BME280;36547;50.514;30.840;2023-05-03T04:48:16;100760.30;;;11.83;54.35
50590;BME280;36547;50.514;30.840;2023-05-03T04:49:19;100760.20;;;11.84;53.86
50590;BME280;36547;50.514;30.840;2023-05-03T04:50:22;100760.99;;;11.86;54.08
50590;BME280;36547;50.514;30.840;2023-05-03T04:51:25;100766.18;;;11.89;53.97
50590;BME280;36547;50.514;30.840;2023-05-03T04:52:27;100753.66;;;11.91;53.88
50590;BME280;36547;50.514;30.840;2023-05-03T04:53:29;100759.78;;;11.93;53.62
50590;BME280;36547;50.514;30.840;2023-05-03T04:54:37;100760.58;;;11.95;53.68
50590;BME280;36547;50.514;30.840;2023-05-03T04:55:39;100762.31;;;11.96;53.98
50590;BME280;36547;50.514;30.840;2023-05-03T04:56:41;100763.07;;;11.98;53.71
50590;BME280;36547;50.514;30.840;2023-05-03T04:57:45;100769.19;;;12.00;53.75
50590;BME280;36547;50.514;30.840;2023-05-03T04:58:48;100767.33;;;12.02;53.66
50590;BME280;36547;50.514;30.840;2023-05-03T04:59:51;100765.45;;;12.04;53.76
50590;BME280;36547;50.514;30.840;2023-05-03T05:00:53;100770.64;;;12.08;53.69
50590;BME280;36547;50.514;30.840;2023-05-03T05:01:58;100770.50;;;12.11;53.57
50590;BME280;36547;50.514;30.840;2023-05-03T05:03:00;100767.73;;;12.12;53.42
50590;BME280;36547;50.514;30.840;2023-05-03T05:04:05;100773.79;;;12.16;53.51
50590;BME280;36547;50.514;30.840;2023-05-03T05:05:10;100773.65;;;12.19;53.29
50590;BME280;36547;50.514;30.840;2023-05-03T05:06:12;100778.83;;;12.22;53.13
50590;BME280;36547;50.514;30.840;2023-05-03T05:07:16;100773.36;;;12.25;53.26
50590;BME280;36547;50.514;30.840;2023-05-03T05:08:18;100780.25;;;12.29;52.99
50590;BME280;36547;50.514;30.840;2023-05-03T05:09:25;100777.52;;;12.30;52.88
50590;BME280;36547;50.514;30.840;2023-05-03T05:10:29;100786.30;;;12.32;52.68
50590;BME280;36547;50.514;30.840;2023-05-03T05:11:33;100778.95;;;12.37;52.89
50590;BME280;36547;50.514;30.840;2023-05-03T05:12:35;100781.48;;;12.41;52.94
50590;BME280;36547;50.514;30.840;2023-05-03T05:13:38;100779.50;;;12.44;52.65
50590;BME280;36547;50.514;30.840;2023-05-03T05:14:41;100778.48;;;12.47;52.61
50590;BME280;36547;50.514;30.840;2023-05-03T05:15:44;100784.54;;;12.50;52.73
50590;BME280;36547;50.514;30.840;2023-05-03T05:16:47;100778.20;;;12.53;52.68
50590;BME280;36547;50.514;30.840;2023-05-03T05:17:50;100781.55;;;12.56;52.44
50590;BME280;36547;50.514;30.840;2023-05-03T05:18:54;100791.13;;;12.60;52.56
50590;BME280;36547;50.514;30.840;2023-05-03T05:19:58;100787.38;;;12.64;52.39
50590;BME280;36547;50.514;30.840;2023-05-03T05:21:03;100781.04;;;12.67;52.24
50590;BME280;36547;50.514;30.840;2023-05-03T05:22:07;100782.59;;;12.71;52.34
50590;BME280;36547;50.514;30.840;2023-05-03T05:23:20;100782.44;;;12.74;52.59
50590;BME280;36547;50.514;30.840;2023-05-03T05:24:22;100784.88;;;12.79;52.21
50590;BME280;36547;50.514;30.840;2023-05-03T05:25:25;100782.86;;;12.84;52.17
50590;BME280;36547;50.514;30.840;2023-05-03T05:26:28;100779.94;;;12.88;51.69
50590;BME280;36547;50.514;30.840;2023-05-03T05:27:30;100785.98;;;12.92;51.69
50590;BME280;36547;50.514;30.840;2023-05-03T05:28:33;100787.56;;;12.96;51.61
50590;BME280;36547;50.514;30.840;2023-05-03T05:29:35;100786.44;;;13.00;51.62
50590;BME280;36547;50.514;30.840;2023-05-03T05:30:38;100785.34;;;13.04;51.45
50590;BME280;36547;50.514;30.840;2023-05-03T05:31:41;100775.39;;;13.07;51.07
50590;BME280;36547;50.514;30.840;2023-05-03T05:32:44;100784.02;;;13.13;51.25
50590;BME280;36547;50.514;30.840;2023-05-03T05:33:47;100778.53;;;13.16;50.68
50590;BME280;36547;50.514;30.840;2023-05-03T05:34:49;100783.64;;;13.20;50.72
50590;BME280;36547;50.514;30.840;2023-05-03T05:35:52;100782.55;;;13.24;51.19
50590;BME280;36547;50.514;30.840;2023-05-03T05:36:56;100776.08;;;13.28;50.93
50590;BME280;36547;50.514;30.840;2023-05-03T05:37:58;100782.05;;;13.33;50.97
50590;BME280;36547;50.514;30.840;2023-05-03T05:39:01;100768.55;;;13.36;50.44
50590;BME280;36547;50.514;30.840;2023-05-03T05:40:06;100776.20;;;13.42;50.51